sensor_id;sensor_type;location;lat;lon;timestamp;pressure;altitude;pressure_sealevel;temperature;humidity
2785;BME280;57944;48.722;9.316;2023-05-20T00:01:48;98164.03;;;11.94;100.00
2785;BME280;57944;48.722;9.316;2023-05-20T00:04:18;98168.38;;;12.06;100.00
2785;BME280;57944;48.722;9.316;2023-05-20T00:06:50;98166.03;;;12.18;100.00
2785;BME280;57944;48.722;9.316;2023-05-20T00:09:21;98169.94;;;12.14;100.00
2785;BME280;57944;48.722;9.316;2023-05-20T00:11:55;98167.41;;;12.07;100.00
2785;BME280;57944;48.722;9.316;2023-05-20T00:14:27;98162.09;;;12.16;100.00
2785;BME280;57944;48.722;9.316;2023-05-20T00:16:58;98162.28;;;12.27;100.00
2785;BME280;57944;48.722;9.316;2023-05-20T00:19:29;98158.91;;;12.34;100.00
2785;BME280;57944;48.722;9.316;2023-05-20T00:21:59;98155.41;;;12.21;100.00
2785;BME280;57944;48.722;9.316;2023-05-20T00:24:30;98151.25;;;12.27;100.00
2785;BME280;57944;48.722;9.316;2023-05-20T00:27:04;98152.22;;;12.39;100.00
2785;BME280;57944;48.722;9.316;2023-05-20T00:29:35;98153.41;;;12.43;100.00
2785;BME280;57944;48.722;9.316;2023-05-20T00:32:07;98151.47;;;12.32;100.00
2785;BME280;57944;48.722;9.316;2023-05-20T00:34:38;98149.09;;;12.17;100.00
2785;BME280;57944;48.722;9.316;2023-05-20T00:37:08;98151.66;;;12.17;100.00
2785;BME280;57944;48.722;9.316;2023-05-20T00:39:39;98145.19;;;12.15;100.00
2785;BME280;57944;48.722;9.316;2023-05-20T00:42:19;98144.38;;;12.27;100.00
2785;BME280;57944;48.722;9.316;2023-05-20T00:44:51;98142.22;;;12.24;100.00
2785;BME280;57944;48.722;9.316;2023-05-20T00:47:27;98142.03;;;12.19;100.00
2785;BME280;57944;48.722;9.316;2023-05-20T00:49:59;98149.69;;;12.19;100.00
2785;BME280;57944;48.722;9.316;2023-05-20T00:52:31;98147.53;;;12.16;100.00
2785;BME280;57944;48.722;9.316;2023-05-20T00:55:03;98142.06;;;11.93;100.00
2785;BME280;57944;48.722;9.316;2023-05-20T00:57:37;98151.47;;;11.92;100.00
2785;BME280;57944;48.722;9.316;2023-05-20T01:00:09;98147.91;;;11.87;100.00
2785;BME280;57944;48.722;9.316;2023-05-20T01:02:40;98142.63;;;11.95;100.00
2785;BME280;57944;48.722;9.316;2023-05-20T01:05:11;98141.66;;;11.96;100.00
2785;BME280;57944;48.722;9.316;2023-05-20T01:07:42;98137.13;;;11.98;100.00
2785;BME280;57944;48.722;9.316;2023-05-20T01:10:13;98143.22;;;12.10;100.00
2785;BME280;57944;48.722;9.316;2023-05-20T01:12:49;98134.75;;;12.16;100.00
2785;BME280;57944;48.722;9.316;2023-05-20T01:15:23;98134.97;;;12.21;100.00
2785;BME280;57944;48.722;9.316;2023-05-20T01:17:59;98135.56;;;12.23;100.00
2785;BME280;57944;48.722;9.316;2023-05-20T01:20:32;98134.56;;;12.24;100.00
2785;BME280;57944;48.722;9.316;2023-05-20T01:23:08;98128.28;;;12.20;100.00
2785;BME280;57944;48.722;9.316;2023-05-20T01:25:41;98126.91;;;12.18;100.00
2785;BME280;57944;48.722;9.316;2023-05-20T01:28:13;98124.94;;;12.00;100.00
2785;BME280;57944;48.722;9.316;2023-05-20T01:30:49;98129.09;;;12.01;100.00
2785;BME280;57944;48.722;9.316;2023-05-20T01:33:24;98126.13;;;11.97;100.00
2785;BME280;57944;48.722;9.316;2023-05-20T01:35:55;98120.00;;;11.85;100.00
2785;BME280;57944;48.722;9.316;2023-05-20T01:38:30;98118.03;;;11.67;100.00
2785;BME280;57944;48.722;9.316;2023-05-20T01:41:02;98122.91;;;11.55;100.00
2785;BME280;57944;48.722;9.316;2023-05-20T01:43:34;98118.81;;;11.61;100.00
2785;BME280;57944;48.722;9.316;2023-05-20T01:46:05;98110.53;;;11.46;100.00
2785;BME280;57944;48.722;9.316;2023-05-20T01:48:36;98117.59;;;11.44;100.00
2785;BME280;57944;48.722;9.316;2023-05-20T01:51:08;98118.38;;;11.37;100.00
2785;BME280;57944;48.722;9.316;2023-05-20T01:53:41;98120.13;;;11.30;100.00
2785;BME280;57944;48.722;9.316;2023-05-20T01:56:12;98124.28;;;11.45;100.00
2785;BME280;57944;48.722;9.316;2023-05-20T01:58:43;98109.00;;;11.51;100.00
2785;BME280;57944;48.722;9.316;2023-05-20T02:01:14;98107.00;;;11.47;100.00
2785;BME280;57944;48.722;9.316;2023-05-20T02:03:45;98111.50;;;11.45;100.00
2785;BME280;57944;48.722;9.316;2023-05-20T02:06:16;98113.88;;;11.39;100.00
2785;BME280;57944;48.722;9.316;2023-05-20T02:08:50;98111.69;;;11.36;100.00
2785;BME280;57944;48.722;9.316;2023-05-20T02:11:21;98107.31;;;11.17;100.00
2785;BME280;57944;48.722;9.316;2023-05-20T02:13:54;98111.41;;;11.05;100.00
2785;BME280;57944;48.722;9.316;2023-05-20T02:16:25;98099.44;;;10.99;100.00
2785;BME280;57944;48.722;9.316;2023-05-20T02:18:56;98109.44;;;11.00;100.00
2785;BME280;57944;48.722;9.316;2023-05-20T02:21:28;98105.69;;;10.89;100.00
2785;BME280;57944;48.722;9.316;2023-05-20T02:24:02;98104.09;;;10.88;100.00
2785;BME280;57944;48.722;9.316;2023-05-20T02:26:33;98104.84;;;10.76;100.00
2785;BME280;57944;48.722;9.316;2023-05-20T02:29:04;98106.41;;;10.77;100.00
2785;BME280;57944;48.722;9.316;2023-05-20T02:31:35;98108.56;;;10.73;100.00
2785;BME280;57944;48.722;9.316;2023-05-20T02:34:06;98112.28;;;10.70;100.00
2785;BME280;57944;48.722;9.316;2023-05-20T02:36:37;98109.91;;;10.69;100.00
2785;BME280;57944;48.722;9.316;2023-05-20T02:39:11;98111.09;;;10.73;100.00
2785;BME280;57944;48.722;9.316;2023-05-20T02:41:43;98106.38;;;10.70;100.00
2785;BME280;57944;48.722;9.316;2023-05-20T02:44:15;98111.50;;;10.70;100.00
2785;BME280;57944;48.722;9.316;2023-05-20T02:46:47;98112.28;;;10.70;100.00
2785;BME280;57944;48.722;9.316;2023-05-20T02:49:20;98115.81;;;10.76;100.00
2785;BME280;57944;48.722;9.316;2023-05-20T02:51:52;98121.72;;;10.83;100.00
2785;BME280;57944;48.722;9.316;2023-05-20T02:54:26;98122.47;;;10.77;100.00
2785;BME280;57944;48.722;9.316;2023-05-20T02:56:57;98116.44;;;10.78;100.00
2785;BME280;57944;48.722;9.316;2023-05-20T02:59:29;98115.59;;;10.71;100.00
2785;BME280;57944;48.722;9.316;2023-05-20T03:02:00;98116.78;;;10.75;100.00
2785;BME280;57944;48.722;9.316;2023-05-20T03:04:31;98115.41;;;10.72;100.00
2785;BME280;57944;48.722;9.316;2023-05-20T03:07:05;98110.72;;;10.76;100.00
2785;BME280;57944;48.722;9.316;2023-05-20T03:09:39;98112.50;;;10.76;100.00
2785;BME280;57944;48.722;9.316;2023-05-20T03:12:10;98115.59;;;10.71;100.00
2785;BME280;57944;48.722;9.316;2023-05-20T03:14:41;98117.53;;;10.69;100.00
2785;BME280;57944;48.722;9.316;2023-05-20T03:17:12;98118.69;;;10.60;100.00
2785;BME280;57944;48.722;9.316;2023-05-20T03:19:43;98119.06;;;10.57;100.00
2785;BME280;57944;48.722;9.316;2023-05-20T03:22:14;98113.75;;;10.51;100.00
2785;BME280;57944;48.722;9.316;2023-05-20T03:24:48;98105.09;;;10.46;100.00
2785;BME280;57944;48.722;9.316;2023-05-20T03:27:20;98102.13;;;10.42;100.00
2785;BME280;57944;48.722;9.316;2023-05-20T03:29:53;98105.56;;;10.28;100.00
2785;BME280;57944;48.722;9.316;2023-05-20T03:32:24;98108.44;;;10.25;100.00
2785;BME280;57944;48.722;9.316;2023-05-20T03:34:55;98117.06;;;10.24;100.00
2785;BME280;57944;48.722;9.316;2023-05-20T03:37:27;98117.44;;;10.21;100.00
2785;BME280;57944;48.722;9.316;2023-05-20T03:40:00;98123.44;;;10.35;100.00
2785;BME280;57944;48.722;9.316;2023-05-20T03:42:34;98125.09;;;10.49;100.00
2785;BME280;57944;48.722;9.316;2023-05-20T03:45:07;98128.66;;;10.55;100.00
2785;BME280;57944;48.722;9.316;2023-05-20T03:47:51;98126.72;;;10.63;100.00
2785;BME280;57944;48.722;9.316;2023-05-20T03:50:22;98122.56;;;10.90;100.00
2785;BME280;57944;48.722;9.316;2023-05-20T03:52:53;98132.03;;;11.10;100.00
2785;BME280;57944;48.722;9.316;2023-05-20T03:55:27;98122.28;;;11.27;100.00
2785;BME280;57944;48.722;9.316;2023-05-20T03:57:59;98127.00;;;11.36;100.00
2785;BME280;57944;48.722;9.316;2023-05-20T04:00:32;98116.63;;;11.45;100.00
2785;BME280;57944;48.722;9.316;2023-05-20T04:03:03;98118.00;;;11.40;100.00
2785;BME280;57944;48.722;9.316;2023-05-20T04:05:35;98119.59;;;11.55;100.00
2785;BME280;57944;48.722;9.316;2023-05-20T04:08:14;98120.97;;;11.51;100.00
2785;BME280;57944;48.722;9.316;2023-05-20T04:10:48;98123.91;;;11.61;100.00
2785;BME280;57944;48.722;9.316;2023-05-20T04:13:20;98127.09;;;11.76;100.00
2785;BME280;57944;48.722;9.316;2023-05-20T04:15:51;98131.41;;;11.89;100.00
2785;BME280;57944;48.722;9.316;2023-05-20T04:18:23;98123.75;;;12.02;100.00
2785;BME280;57944;48.722;9.316;2023-05-20T04:20:56;98116.28;;;11.94;100.00
2785;BME280;57944;48.722;9.316;2023-05-20T04:23:28;98118.47;;;12.04;100.00
2785;BME280;57944;48.722;9.316;2023-05-20T04:26:02;98118.44;;;12.30;100.00
2785;BME280;57944;48.722;9.316;2023-05-20T04:28:34;98113.66;;;12.47;100.00
2785;BME280;57944;48.722;9.316;2023-05-20T04:31:05;98111.31;;;12.52;100.00
2785;BME280;57944;48.722;9.316;2023-05-20T04:33:38;98113.63;;;12.74;100.00
2785;BME280;57944;48.722;9.316;2023-05-20T04:36:10;98118.84;;;12.92;100.00
2785;BME280;57944;48.722;9.316;2023-05-20T04:38:42;98113.41;;;13.21;100.00
2785;BME280;57944;48.722;9.316;2023-05-20T04:41:16;98115.13;;;13.40;100.00
2785;BME280;57944;48.722;9.316;2023-05-20T04:43:47;98115.50;;;13.69;100.00
2785;BME280;57944;48.722;9.316;2023-05-20T04:46:18;98116.97;;;13.83;100.00
2785;BME280;57944;48.722;9.316;2023-05-20T04:48:49;98112.09;;;14.00;100.00
2785;BME280;57944;48.722;9.316;2023-05-20T04:51:20;98112.59;;;13.90;100.00
2785;BME280;57944;48.722;9.316;2023-05-20T04:53:51;98115.34;;;13.89;100.00
2785;BME280;57944;48.722;9.316;2023-05-20T04:56:25;98109.63;;;14.12;100.00
2785;BME280;57944;48.722;9.316;2023-05-20T04:58:56;98115.28;;;14.39;100.00
2785;BME280;57944;48.722;9.316;2023-05-20T05:01:27;98113.03;;;14.49;100.00
2785;BME280;57944;48.722;9.316;2023-05-20T05:03:58;98109.56;;;14.62;100.00
2785;BME280;57944;48.722;9.316;2023-05-20T05:06:29;98109.53;;;14.43;100.00
2785;BME280;57944;48.722;9.316;2023-05-20T05:08:59;98101.41;;;14.46;100.00
2785;BME280;57944;48.722;9.316;2023-05-20T05:11:34;98110.00;;;14.59;100.00
2785;BME280;57944;48.722;9.316;2023-05-20T05:14:06;98105.88;;;14.58;100.00
2785;BME280;57944;48.722;9.316;2023-05-20T05:16:37;98107.75;;;14.81;100.00
2785;BME280;57944;48.722;9.316;2023-05-20T05:19:08;98105.19;;;14.62;100.00
2785;BME280;57944;48.722;9.316;2023-05-20T05:21:41;98101.38;;;14.53;100.00
2785;BME280;57944;48.722;9.316;2023-05-20T05:24:12;98089.81;;;14.62;100.00
2785;BME280;57944;48.722;9.316;2023-05-20T05:26:46;98091.00;;;14.96;100.00
2785;BME280;57944;48.722;9.316;2023-05-20T05:29:17;98099.63;;;15.02;100.00
2785;BME280;57944;48.722;9.316;2023-05-20T05:31:48;98098.41;;;15.05;100.00
2785;BME280;57944;48.722;9.316;2023-05-20T05:34:19;98096.47;;;15.30;100.00
2785;BME280;57944;48.722;9.316;2023-05-20T05:36:50;98086.59;;;15.57;100.00
2785;BME280;57944;48.722;9.316;2023-05-20T05:39:22;98088.53;;;15.74;100.00
2785;BME280;57944;48.722;9.316;2023-05-20T05:41:55;98087.19;;;16.30;100.00
2785;BME280;57944;48.722;9.316;2023-05-20T05:44:27;98091.63;;;16.58;100.00
2785;BME280;57944;48.722;9.316;2023-05-20T05:46:58;98076.31;;;16.92;100.00
2785;BME280;57944;48.722;9.316;2023-05-20T05:49:29;98076.25;;;16.75;100.00
2785;BME280;57944;48.722;9.316;2023-05-20T05:52:00;98075.38;;;16.69;100.00
2785;BME280;57944;48.722;9.316;2023-05-20T05:54:32;98079.50;;;16.70;100.00
2785;BME280;57944;48.722;9.316;2023-05-20T05:57:06;98076.38;;;17.26;97.82
2785;BME280;57944;48.722;9.316;2023-05-20T05:59:38;98084.97;;;17.14;96.01
2785;BME280;57944;48.722;9.316;2023-05-20T06:02:09;98084.13;;;17.26;96.54
2785;BME280;57944;48.722;9.316;2023-05-20T06:04:42;98079.06;;;17.31;94.61
2785;BME280;57944;48.722;9.316;2023-05-20T06:07:13;98082.19;;;17.50;94.75
2785;BME280;57944;48.722;9.316;2023-05-20T06:09:45;98076.94;;;18.12;90.10
2785;BME280;57944;48.722;9.316;2023-05-20T06:12:19;98075.06;;;18.07;89.41
2785;BME280;57944;48.722;9.316;2023-05-20T06:14:50;98078.97;;;18.32;86.99
2785;BME280;57944;48.722;9.316;2023-05-20T06:17:21;98072.75;;;18.28;85.91
2785;BME280;57944;48.722;9.316;2023-05-20T06:19:52;98060.38;;;18.30;86.44
2785;BME280;57944;48.722;9.316;2023-05-20T06:22:24;98061.13;;;17.53;91.68
2785;BME280;57944;48.722;9.316;2023-05-20T06:24:56;98063.69;;;17.86;91.29
2785;BME280;57944;48.722;9.316;2023-05-20T06:27:33;98064.88;;;18.18;88.96
2785;BME280;57944;48.722;9.316;2023-05-20T06:30:07;98060.63;;;18.50;85.05
2785;BME280;57944;48.722;9.316;2023-05-20T06:32:38;98054.69;;;18.99;81.28
2785;BME280;57944;48.722;9.316;2023-05-20T06:35:10;98056.38;;;19.42;75.99
2785;BME280;57944;48.722;9.316;2023-05-20T06:37:41;98053.38;;;19.61;75.96
2785;BME280;57944;48.722;9.316;2023-05-20T06:40:12;98052.38;;;20.04;72.88
2785;BME280;57944;48.722;9.316;2023-05-20T06:42:46;98044.50;;;20.31;67.94
2785;BME280;57944;48.722;9.316;2023-05-20T06:45:19;98046.31;;;20.36;69.45
2785;BME280;57944;48.722;9.316;2023-05-20T06:47:54;98037.19;;;20.18;68.84
2785;BME280;57944;48.722;9.316;2023-05-20T06:50:25;98050.03;;;20.03;71.51
2785;BME280;57944;48.722;9.316;2023-05-20T06:52:57;98043.38;;;20.12;70.75
2785;BME280;57944;48.722;9.316;2023-05-20T06:55:28;98046.34;;;19.89;68.85
2785;BME280;57944;48.722;9.316;2023-05-20T06:58:03;98039.31;;;19.09;74.99
2785;BME280;57944;48.722;9.316;2023-05-20T07:00:34;98040.09;;;19.42;73.72
2785;BME280;57944;48.722;9.316;2023-05-20T07:03:06;98028.03;;;20.63;66.96
2785;BME280;57944;48.722;9.316;2023-05-20T07:05:39;98028.25;;;20.51;65.44
2785;BME280;57944;48.722;9.316;2023-05-20T07:08:11;98026.28;;;20.11;65.81
2785;BME280;57944;48.722;9.316;2023-05-20T07:10:41;98021.84;;;20.74;63.74
2785;BME280;57944;48.722;9.316;2023-05-20T07:13:19;98029.66;;;21.05;62.45
2785;BME280;57944;48.722;9.316;2023-05-20T07:15:51;98028.88;;;21.05;61.76
2785;BME280;57944;48.722;9.316;2023-05-20T07:18:22;98026.28;;;21.20;58.98
2785;BME280;57944;48.722;9.316;2023-05-20T07:20:54;98014.53;;;20.51;62.55
2785;BME280;57944;48.722;9.316;2023-05-20T07:23:46;98021.19;;;20.31;64.62
2785;BME280;57944;48.722;9.316;2023-05-20T07:26:17;98016.13;;;20.62;61.27
2785;BME280;57944;48.722;9.316;2023-05-20T07:28:51;98017.88;;;20.46;62.26
2785;BME280;57944;48.722;9.316;2023-05-20T07:31:23;98019.31;;;21.26;59.82
2785;BME280;57944;48.722;9.316;2023-05-20T07:33:53;98019.81;;;21.53;58.17
2785;BME280;57944;48.722;9.316;2023-05-20T07:36:26;98027.59;;;21.02;57.26
2785;BME280;57944;48.722;9.316;2023-05-20T07:39:02;98021.06;;;20.74;60.65
2785;BME280;57944;48.722;9.316;2023-05-20T07:41:39;98015.16;;;20.99;59.99
2785;BME280;57944;48.722;9.316;2023-05-20T07:44:14;98009.94;;;21.76;57.28
2785;BME280;57944;48.722;9.316;2023-05-20T07:46:48;98006.81;;;21.79;55.76
2785;BME280;57944;48.722;9.316;2023-05-20T07:49:20;98006.59;;;21.50;57.02
2785;BME280;57944;48.722;9.316;2023-05-20T07:51:51;97999.59;;;21.50;57.24
2785;BME280;57944;48.722;9.316;2023-05-20T07:54:22;97993.19;;;22.18;55.98
2785;BME280;57944;48.722;9.316;2023-05-20T07:56:54;97986.50;;;21.96;55.48
2785;BME280;57944;48.722;9.316;2023-05-20T07:59:31;98000.34;;;20.69;60.13
2785;BME280;57944;48.722;9.316;2023-05-20T08:02:02;98001.00;;;20.39;64.15
2785;BME280;57944;48.722;9.316;2023-05-20T08:04:33;98009.94;;;20.84;62.08
2785;BME280;57944;48.722;9.316;2023-05-20T08:07:04;98002.72;;;21.22;59.19
2785;BME280;57944;48.722;9.316;2023-05-20T08:09:50;97992.78;;;21.85;55.08
2785;BME280;57944;48.722;9.316;2023-05-20T08:12:21;97993.22;;;22.07;54.15
2785;BME280;57944;48.722;9.316;2023-05-20T08:14:56;97990.63;;;22.02;54.21
2785;BME280;57944;48.722;9.316;2023-05-20T08:17:27;97995.16;;;22.36;52.60
2785;BME280;57944;48.722;9.316;2023-05-20T08:19:58;98017.44;;;22.52;52.13
2785;BME280;57944;48.722;9.316;2023-05-20T08:22:29;98015.06;;;21.91;53.76
2785;BME280;57944;48.722;9.316;2023-05-20T08:24:59;98011.09;;;22.09;52.07
2785;BME280;57944;48.722;9.316;2023-05-20T08:27:31;98018.72;;;21.90;53.68
2785;BME280;57944;48.722;9.316;2023-05-20T08:30:06;98014.47;;;22.69;50.44
2785;BME280;57944;48.722;9.316;2023-05-20T08:32:38;98016.91;;;23.29;49.80
2785;BME280;57944;48.722;9.316;2023-05-20T08:35:10;98011.00;;;23.48;48.36
2785;BME280;57944;48.722;9.316;2023-05-20T08:37:42;98016.91;;;23.29;48.82
2785;BME280;57944;48.722;9.316;2023-05-20T08:40:14;98011.22;;;23.27;48.32
2785;BME280;57944;48.722;9.316;2023-05-20T08:42:45;98011.06;;;23.42;48.16
2785;BME280;57944;48.722;9.316;2023-05-20T08:45:21;98011.25;;;23.80;46.92
2785;BME280;57944;48.722;9.316;2023-05-20T08:48:00;98001.28;;;23.58;47.61
2785;BME280;57944;48.722;9.316;2023-05-20T08:50:32;98000.91;;;24.37;45.86
2785;BME280;57944;48.722;9.316;2023-05-20T08:53:03;98003.44;;;24.99;44.18
2785;BME280;57944;48.722;9.316;2023-05-20T08:55:40;97998.47;;;26.55;41.51
2785;BME280;57944;48.722;9.316;2023-05-20T08:58:13;97996.53;;;25.96;41.51
2785;BME280;57944;48.722;9.316;2023-05-20T09:00:48;97987.91;;;26.60;41.62
2785;BME280;57944;48.722;9.316;2023-05-20T09:03:19;97979.34;;;27.84;39.05
2785;BME280;57944;48.722;9.316;2023-05-20T09:05:51;97990.34;;;28.82;37.02
2785;BME280;57944;48.722;9.316;2023-05-20T09:08:24;97980.94;;;28.89;36.52
2785;BME280;57944;48.722;9.316;2023-05-20T09:10:55;97990.19;;;29.81;34.90
2785;BME280;57944;48.722;9.316;2023-05-20T09:13:28;97987.56;;;29.81;34.50
2785;BME280;57944;48.722;9.316;2023-05-20T09:16:02;97985.31;;;29.71;34.85
2785;BME280;57944;48.722;9.316;2023-05-20T09:18:36;97983.84;;;28.96;36.40
2785;BME280;57944;48.722;9.316;2023-05-20T09:21:07;97979.53;;;30.07;34.94
2785;BME280;57944;48.722;9.316;2023-05-20T09:23:39;97976.81;;;31.24;32.84
2785;BME280;57944;48.722;9.316;2023-05-20T09:26:17;97980.69;;;31.51;32.59
2785;BME280;57944;48.722;9.316;2023-05-20T09:28:48;97979.50;;;30.70;33.41
2785;BME280;57944;48.722;9.316;2023-05-20T09:31:25;97979.25;;;28.76;35.44
2785;BME280;57944;48.722;9.316;2023-05-20T09:33:57;97971.88;;;27.77;37.29
2785;BME280;57944;48.722;9.316;2023-05-20T09:36:29;97974.47;;;27.60;38.22
2785;BME280;57944;48.722;9.316;2023-05-20T09:39:04;97965.22;;;26.91;38.96
2785;BME280;57944;48.722;9.316;2023-05-20T09:41:41;97961.88;;;26.77;40.04
2785;BME280;57944;48.722;9.316;2023-05-20T09:44:16;97961.00;;;26.45;40.22
2785;BME280;57944;48.722;9.316;2023-05-20T09:46:50;97966.28;;;28.10;38.62
2785;BME280;57944;48.722;9.316;2023-05-20T09:49:22;97956.88;;;27.92;37.43
2785;BME280;57944;48.722;9.316;2023-05-20T09:51:54;97959.66;;;28.21;37.77
2785;BME280;57944;48.722;9.316;2023-05-20T09:54:27;97947.69;;;29.02;36.62
2785;BME280;57944;48.722;9.316;2023-05-20T09:57:00;97947.06;;;27.66;38.07
2785;BME280;57944;48.722;9.316;2023-05-20T09:59:33;97954.06;;;25.91;41.27
2785;BME280;57944;48.722;9.316;2023-05-20T10:02:09;97945.91;;;26.20;40.91
2785;BME280;57944;48.722;9.316;2023-05-20T10:04:44;97941.88;;;26.14;40.81
2785;BME280;57944;48.722;9.316;2023-05-20T10:07:44;97943.88;;;24.73;44.07
2785;BME280;57944;48.722;9.316;2023-05-20T10:10:28;97942.31;;;24.72;43.48
2785;BME280;57944;48.722;9.316;2023-05-20T10:13:10;97927.59;;;25.14;42.16
2785;BME280;57944;48.722;9.316;2023-05-20T10:15:51;97934.34;;;24.83;42.50
2785;BME280;57944;48.722;9.316;2023-05-20T10:18:35;97924.72;;;24.64;42.95
2785;BME280;57944;48.722;9.316;2023-05-20T10:21:17;97928.63;;;24.48;43.81
2785;BME280;57944;48.722;9.316;2023-05-20T10:23:49;97929.03;;;24.17;45.00
2785;BME280;57944;48.722;9.316;2023-05-20T10:26:20;97925.47;;;24.13;45.00
2785;BME280;57944;48.722;9.316;2023-05-20T10:28:51;97924.91;;;25.33;43.33
2785;BME280;57944;48.722;9.316;2023-05-20T10:31:22;97922.28;;;26.47;39.76
2785;BME280;57944;48.722;9.316;2023-05-20T10:33:58;97922.72;;;26.63;39.77
2785;BME280;57944;48.722;9.316;2023-05-20T10:36:29;97925.69;;;27.24;38.24
2785;BME280;57944;48.722;9.316;2023-05-20T10:39:03;97920.34;;;27.38;37.81
2785;BME280;57944;48.722;9.316;2023-05-20T10:41:34;97917.69;;;28.73;35.87
2785;BME280;57944;48.722;9.316;2023-05-20T10:44:05;97919.63;;;29.11;35.50
2785;BME280;57944;48.722;9.316;2023-05-20T10:46:37;97914.97;;;29.08;35.57
2785;BME280;57944;48.722;9.316;2023-05-20T10:49:33;97913.31;;;27.47;37.75
2785;BME280;57944;48.722;9.316;2023-05-20T10:52:07;97903.06;;;27.28;38.65
2785;BME280;57944;48.722;9.316;2023-05-20T10:54:42;97892.59;;;27.94;37.48
2785;BME280;57944;48.722;9.316;2023-05-20T10:57:18;97897.50;;;28.65;37.25
2785;BME280;57944;48.722;9.316;2023-05-20T10:59:49;97893.09;;;29.04;35.63
2785;BME280;57944;48.722;9.316;2023-05-20T11:02:21;97893.50;;;28.42;36.61
2785;BME280;57944;48.722;9.316;2023-05-20T11:04:56;97889.25;;;28.93;35.98
2785;BME280;57944;48.722;9.316;2023-05-20T11:07:28;97884.16;;;29.65;34.76
2785;BME280;57944;48.722;9.316;2023-05-20T11:10:01;97879.66;;;29.86;34.30
2785;BME280;57944;48.722;9.316;2023-05-20T11:12:32;97884.59;;;29.67;35.02
2785;BME280;57944;48.722;9.316;2023-05-20T11:15:04;97867.19;;;28.85;34.74
2785;BME280;57944;48.722;9.316;2023-05-20T11:17:35;97862.31;;;29.13;35.21
2785;BME280;57944;48.722;9.316;2023-05-20T11:20:09;97871.97;;;28.92;35.33
2785;BME280;57944;48.722;9.316;2023-05-20T11:22:41;97861.69;;;29.46;34.29
2785;BME280;57944;48.722;9.316;2023-05-20T11:25:14;97866.38;;;29.61;34.50
2785;BME280;57944;48.722;9.316;2023-05-20T11:27:45;97861.13;;;30.24;33.29
2785;BME280;57944;48.722;9.316;2023-05-20T11:30:16;97853.69;;;29.64;34.54
2785;BME280;57944;48.722;9.316;2023-05-20T11:32:57;97853.28;;;27.94;37.27
2785;BME280;57944;48.722;9.316;2023-05-20T11:35:31;97857.16;;;27.79;37.47
2785;BME280;57944;48.722;9.316;2023-05-20T11:38:04;97854.00;;;27.43;38.53
2785;BME280;57944;48.722;9.316;2023-05-20T11:40:36;97846.34;;;28.24;36.63
2785;BME280;57944;48.722;9.316;2023-05-20T11:43:17;97846.16;;;29.32;35.64
2785;BME280;57944;48.722;9.316;2023-05-20T11:45:54;97838.97;;;31.45;32.27
2785;BME280;57944;48.722;9.316;2023-05-20T11:48:26;97838.16;;;31.69;31.53
2785;BME280;57944;48.722;9.316;2023-05-20T11:51:01;97835.72;;;33.11;29.99
2785;BME280;57944;48.722;9.316;2023-05-20T11:53:32;97848.34;;;33.73;28.86
2785;BME280;57944;48.722;9.316;2023-05-20T11:56:06;97834.16;;;32.15;29.75
2785;BME280;57944;48.722;9.316;2023-05-20T11:58:43;97829.94;;;32.26;30.49
2785;BME280;57944;48.722;9.316;2023-05-20T12:01:30;97826.06;;;30.90;31.78
2785;BME280;57944;48.722;9.316;2023-05-20T12:04:04;97824.59;;;28.24;35.34
2785;BME280;57944;48.722;9.316;2023-05-20T12:06:38;97823.78;;;28.41;35.99
2785;BME280;57944;48.722;9.316;2023-05-20T12:09:10;97819.28;;;28.67;35.25
2785;BME280;57944;48.722;9.316;2023-05-20T12:11:41;97821.34;;;28.36;35.72
2785;BME280;57944;48.722;9.316;2023-05-20T12:14:12;97825.97;;;28.47;34.67
2785;BME280;57944;48.722;9.316;2023-05-20T12:16:43;97826.69;;;29.33;34.01
2785;BME280;57944;48.722;9.316;2023-05-20T12:19:16;97811.78;;;29.88;32.79
2785;BME280;57944;48.722;9.316;2023-05-20T12:21:50;97814.75;;;29.87;33.55
2785;BME280;57944;48.722;9.316;2023-05-20T12:24:23;97805.34;;;29.65;33.96
2785;BME280;57944;48.722;9.316;2023-05-20T12:26:54;97803.94;;;28.87;34.62
2785;BME280;57944;48.722;9.316;2023-05-20T12:29:24;97798.91;;;29.53;34.31
2785;BME280;57944;48.722;9.316;2023-05-20T12:31:55;97801.94;;;31.13;33.12
2785;BME280;57944;48.722;9.316;2023-05-20T12:34:26;97802.31;;;30.29;33.41
2785;BME280;57944;48.722;9.316;2023-05-20T12:37:00;97800.06;;;29.44;34.74
2785;BME280;57944;48.722;9.316;2023-05-20T12:39:30;97801.56;;;30.28;33.47
2785;BME280;57944;48.722;9.316;2023-05-20T12:42:01;97800.16;;;30.68;32.64
2785;BME280;57944;48.722;9.316;2023-05-20T12:44:32;97809.28;;;30.70;32.69
2785;BME280;57944;48.722;9.316;2023-05-20T12:47:03;97809.88;;;31.53;31.70
2785;BME280;57944;48.722;9.316;2023-05-20T12:49:34;97815.53;;;32.40;29.66
2785;BME280;57944;48.722;9.316;2023-05-20T12:52:07;97799.75;;;31.96;30.27
2785;BME280;57944;48.722;9.316;2023-05-20T12:54:49;97799.53;;;30.83;32.02
2785;BME280;57944;48.722;9.316;2023-05-20T12:57:19;97785.94;;;30.93;31.72
2785;BME280;57944;48.722;9.316;2023-05-20T12:59:51;97780.72;;;30.36;32.01
2785;BME280;57944;48.722;9.316;2023-05-20T13:02:22;97780.94;;;31.69;30.65
2785;BME280;57944;48.722;9.316;2023-05-20T13:04:53;97792.78;;;32.99;29.97
2785;BME280;57944;48.722;9.316;2023-05-20T13:07:26;97789.38;;;33.69;29.01
2785;BME280;57944;48.722;9.316;2023-05-20T13:09:58;97786.81;;;32.07;29.92
2785;BME280;57944;48.722;9.316;2023-05-20T13:12:29;97784.13;;;30.24;32.45
2785;BME280;57944;48.722;9.316;2023-05-20T13:15:00;97785.91;;;28.21;35.00
2785;BME280;57944;48.722;9.316;2023-05-20T13:17:30;97772.09;;;27.68;36.60
2785;BME280;57944;48.722;9.316;2023-05-20T13:20:02;97771.78;;;27.44;36.95
2785;BME280;57944;48.722;9.316;2023-05-20T13:22:35;97763.13;;;27.17;37.63
2785;BME280;57944;48.722;9.316;2023-05-20T13:25:07;97760.94;;;26.62;38.80
2785;BME280;57944;48.722;9.316;2023-05-20T13:27:38;97761.31;;;26.78;38.48
2785;BME280;57944;48.722;9.316;2023-05-20T13:30:10;97760.63;;;26.63;38.76
2785;BME280;57944;48.722;9.316;2023-05-20T13:32:43;97763.34;;;26.89;37.86
2785;BME280;57944;48.722;9.316;2023-05-20T13:35:14;97756.13;;;26.95;37.73
2785;BME280;57944;48.722;9.316;2023-05-20T13:37:48;97756.06;;;27.17;38.04